Time;durP1;ratioP1;P1;durP2;ratioP2;P2;SDS_P1;SDS_P2;PMS_P1;PMS_P2;Temp;Humidity;BMP_temperature;BMP_pressure;BME280_temperature;BME280_humidity;BME280_pressure;Samples;Min_cycle;Max_cycle;Signal;HPM_P1;HPM_P2
2023/12/21 00:00:47;;;;;;;10.30;6.90;;;21.30;56.50;;;;;;5070020;28;20178;-70
2023/12/21 00:03:12;;;;;;;12.30;6.90;;;21.30;56.60;;;;;;5068720;28;20412;-71
2023/12/21 00:05:38;;;;;;;11.80;7.10;;;21.30;56.50;;;;;;5069898;28;20218;-70
2023/12/21 00:08:04;;;;;;;13.73;6.93;;;21.30;56.50;;;;;;5068503;28;20225;-70
2023/12/21 00:10:29;;;;;;;11.50;6.90;;;21.30;56.60;;;;;;5069889;28;20164;-70
2023/12/21 00:12:56;;;;;;;11.50;7.03;;;21.30;56.50;;;;;;5072264;28;20185;-71
2023/12/21 00:15:21;;;;;;;10.90;7.70;;;21.30;56.50;;;;;;5074002;28;20608;-71
2023/12/21 00:17:47;;;;;;;12.20;7.47;;;21.30;56.50;;;;;;5073613;28;20466;-71
2023/12/21 00:20:13;;;;;;;10.97;6.87;;;21.30;56.50;;;;;;5073908;28;20185;-70
2023/12/21 00:22:38;;;;;;;8.83;6.67;;;21.30;56.50;;;;;;5073710;28;20174;-70
2023/12/21 00:25:04;;;;;;;9.33;6.77;;;21.30;56.50;;;;;;5074016;28;20178;-70
2023/12/21 00:27:30;;;;;;;10.43;6.90;;;21.30;56.50;;;;;;5073443;28;20692;-71
2023/12/21 00:29:55;;;;;;;12.57;7.13;;;21.30;56.50;;;;;;5073582;28;20519;-70
2023/12/21 00:32:21;;;;;;;12.47;6.63;;;21.30;56.50;;;;;;5072206;28;20179;-70
2023/12/21 00:34:49;;;;;;;11.37;7.03;;;21.30;56.50;;;;;;5073541;28;20166;-70
2023/12/21 00:37:15;;;;;;;11.80;7.67;;;21.30;56.50;;;;;;5073398;28;20258;-71
2023/12/21 00:39:41;;;;;;;10.20;6.47;;;21.30;56.50;;;;;;5073429;28;20416;-70
2023/12/21 00:42:06;;;;;;;11.17;7.23;;;21.30;56.40;;;;;;5073644;28;20424;-71
2023/12/21 00:44:32;;;;;;;8.33;5.60;;;21.30;56.40;;;;;;5073456;28;20181;-69
2023/12/21 00:46:57;;;;;;;9.97;6.60;;;21.30;56.40;;;;;;5073177;28;20210;-70
2023/12/21 00:49:23;;;;;;;10.83;6.97;;;21.30;56.50;;;;;;5073217;28;20177;-69
2023/12/21 00:51:48;;;;;;;11.00;7.63;;;21.30;56.50;;;;;;5073251;28;20198;-71
2023/12/21 00:54:14;;;;;;;8.97;6.53;;;21.20;56.40;;;;;;5073152;28;20166;-69
2023/12/21 00:56:40;;;;;;;11.50;6.63;;;21.20;56.40;;;;;;5073033;28;20186;-70
2023/12/21 00:59:05;;;;;;;10.10;6.97;;;21.30;56.50;;;;;;5073031;28;20170;-70
2023/12/21 01:01:31;;;;;;;11.20;7.37;;;21.30;56.50;;;;;;5073054;28;20243;-70
2023/12/21 01:03:56;;;;;;;9.80;6.47;;;21.20;56.40;;;;;;5073330;28;20275;-69
2023/12/21 01:06:22;;;;;;;7.20;5.67;;;21.20;56.40;;;;;;5071428;28;20210;-70
2023/12/21 01:08:48;;;;;;;8.93;6.30;;;21.30;56.50;;;;;;5072896;28;20732;-69
2023/12/21 01:11:13;;;;;;;9.60;6.23;;;21.20;56.40;;;;;;5073202;28;20181;-70
2023/12/21 01:13:39;;;;;;;11.87;6.10;;;21.20;56.50;;;;;;5071455;28;20170;-70
2023/12/21 01:16:05;;;;;;;8.50;5.90;;;21.20;56.40;;;;;;5072726;28;20178;-70
2023/12/21 01:18:30;;;;;;;10.13;6.93;;;21.20;56.40;;;;;;5072679;28;20190;-70
2023/12/21 01:20:56;;;;;;;8.27;5.40;;;21.30;56.50;;;;;;5072759;28;20454;-69
2023/12/21 01:23:22;;;;;;;10.13;6.17;;;21.20;56.40;;;;;;5072657;28;20551;-70
2023/12/21 01:25:47;;;;;;;9.63;6.07;;;21.20;56.40;;;;;;5072634;28;20174;-70
2023/12/21 01:28:13;;;;;;;10.67;6.63;;;21.20;56.40;;;;;;5072575;28;20194;-70
2023/12/21 01:30:39;;;;;;;9.33;6.97;;;21.20;56.40;;;;;;5072514;28;20173;-70
2023/12/21 01:33:04;;;;;;;7.03;5.80;;;21.20;56.50;;;;;;5072582;28;20174;-70
2023/12/21 01:35:30;;;;;;;8.47;5.53;;;21.20;56.40;;;;;;5072525;28;20167;-70
2023/12/21 01:37:56;;;;;;;10.57;5.87;;;21.20;56.40;;;;;;5072441;28;20198;-70
2023/12/21 01:40:23;;;;;;;10.47;7.27;;;21.20;56.40;;;;;;5072000;28;20181;-70
2023/12/21 01:42:48;;;;;;;7.67;5.57;;;21.20;56.40;;;;;;5076599;28;20230;-70
2023/12/21 01:45:14;;;;;;;8.40;5.80;;;21.20;56.40;;;;;;5091950;28;20502;-70
2023/12/21 01:47:40;;;;;;;7.60;5.40;;;21.20;56.40;;;;;;5090925;28;20209;-70
2023/12/21 01:50:07;;;;;;;10.67;6.00;;;21.20;56.40;;;;;;5091451;28;20173;-71
2023/12/21 01:52:34;;;;;;;7.37;5.67;;;21.20;56.40;;;;;;5092226;28;20396;-70
2023/12/21 01:55:00;;;;;;;7.60;5.60;;;21.20;57.00;;;;;;5092362;28;20415;-69
2023/12/21 01:57:26;;;;;;;9.03;6.20;;;21.20;56.40;;;;;;5092172;28;20432;-70
2023/12/21 01:59:51;;;;;;;9.23;5.53;;;21.20;56.40;;;;;;5092469;28;20428;-70
2023/12/21 02:02:17;;;;;;;7.87;5.50;;;21.20;56.40;;;;;;5092217;28;20177;-70
2023/12/21 02:04:44;;;;;;;8.13;5.03;;;21.20;56.50;;;;;;5090783;28;20254;-71
2023/12/21 02:07:09;;;;;;;7.50;5.07;;;21.20;56.50;;;;;;5091950;28;20270;-70
2023/12/21 02:09:35;;;;;;;7.30;6.17;;;21.20;56.50;;;;;;5092139;28;20934;-70
2023/12/21 02:12:00;;;;;;;9.23;5.63;;;21.10;56.40;;;;;;5092040;28;20541;-70
2023/12/21 02:14:26;;;;;;;7.90;5.73;;;21.10;56.40;;;;;;5091975;28;20257;-70
2023/12/21 02:16:59;;;;;;;10.00;6.27;;;21.20;56.50;;;;;;5091837;28;20589;-69
2023/12/21 02:19:25;;;;;;;7.20;5.13;;;21.10;56.40;;;;;;5091893;28;20215;-70
2023/12/21 02:21:53;;;;;;;8.33;5.17;;;21.10;56.40;;;;;;5090477;28;20415;-69
2023/12/21 02:24:19;;;;;;;8.40;5.77;;;21.10;56.40;;;;;;5091848;28;20181;-71
2023/12/21 02:26:45;;;;;;;9.67;5.87;;;21.10;56.40;;;;;;5091557;28;20464;-70
2023/12/21 02:29:11;;;;;;;8.30;5.20;;;21.10;56.40;;;;;;5091613;28;20431;-70
2023/12/21 02:31:37;;;;;;;7.77;5.43;;;21.10;56.40;;;;;;5091584;28;20174;-70
2023/12/21 02:34:05;;;;;;;6.70;4.67;;;21.10;56.50;;;;;;5091584;28;20576;-68
2023/12/21 02:36:31;;;;;;;6.57;4.80;;;21.10;56.40;;;;;;5091090;28;20534;-70
2023/12/21 02:38:56;;;;;;;7.87;5.03;;;21.10;56.40;;;;;;5091465;28;20499;-69
2023/12/21 02:41:22;;;;;;;9.70;5.23;;;21.10;56.40;;;;;;5090337;28;20181;-70
2023/12/21 02:43:47;;;;;;;9.37;6.47;;;21.10;56.40;;;;;;5091373;28;20182;-70
2023/12/21 02:46:13;;;;;;;5.80;4.43;;;21.10;56.40;;;;;;5091237;28;20205;-71
2023/12/21 02:48:38;;;;;;;6.20;4.60;;;21.10;56.40;;;;;;5091328;28;20169;-70
2023/12/21 02:51:04;;;;;;;8.20;5.13;;;21.10;56.40;;;;;;5091272;28;20628;-70
2023/12/21 02:53:30;;;;;;;7.27;4.83;;;21.10;56.40;;;;;;5091322;28;20193;-70
2023/12/21 02:55:55;;;;;;;6.97;4.80;;;21.10;56.40;;;;;;5091208;28;20234;-70
2023/12/21 02:58:21;;;;;;;8.90;6.00;;;21.10;56.40;;;;;;5091155;28;20252;-70
2023/12/21 03:00:46;;;;;;;5.90;3.93;;;21.10;56.40;;;;;;5091309;28;20937;-71
2023/12/21 03:03:12;;;;;;;6.47;5.20;;;21.10;56.40;;;;;;5091054;28;20577;-69
2023/12/21 03:05:37;;;;;;;6.00;4.87;;;21.10;56.40;;;;;;5091051;28;20184;-70
2023/12/21 03:08:03;;;;;;;4.97;4.00;;;21.10;56.40;;;;;;5090885;28;20236;-70
2023/12/21 03:10:29;;;;;;;7.73;5.13;;;21.10;56.40;;;;;;5091128;28;20177;-70
2023/12/21 03:12:54;;;;;;;7.10;4.80;;;21.10;56.50;;;;;;5090797;28;20176;-70
2023/12/21 03:15:20;;;;;;;8.40;4.87;;;21.10;56.40;;;;;;5090941;28;20170;-70
2023/12/21 03:17:46;;;;;;;8.20;5.23;;;21.10;56.40;;;;;;5090479;28;20209;-70
2023/12/21 03:20:12;;;;;;;9.20;4.97;;;21.10;56.50;;;;;;5091018;28;20189;-69
2023/12/21 03:22:37;;;;;;;7.97;5.40;;;21.10;56.50;;;;;;5089270;28;20215;-70
2023/12/21 03:25:03;;;;;;;6.50;5.40;;;21.10;56.50;;;;;;5090696;28;20415;-71
2023/12/21 03:27:29;;;;;;;7.97;4.70;;;21.10;56.50;;;;;;5090482;28;20236;-70
2023/12/21 03:29:55;;;;;;;6.83;4.53;;;21.10;56.50;;;;;;5090590;28;20432;-70
2023/12/21 03:32:20;;;;;;;5.30;4.13;;;21.10;56.50;;;;;;5090574;28;20170;-70
2023/12/21 03:34:46;;;;;;;5.80;4.80;;;21.10;56.50;;;;;;5090573;28;20296;-70
2023/12/21 03:37:12;;;;;;;7.33;4.17;;;21.00;56.40;;;;;;5090386;28;20197;-70
2023/12/21 03:39:37;;;;;;;7.40;4.77;;;21.10;56.50;;;;;;5090787;28;20185;-70
2023/12/21 03:42:04;;;;;;;6.63;5.27;;;21.10;56.50;;;;;;5090411;28;20165;-70
2023/12/21 03:44:29;;;;;;;6.40;4.70;;;21.00;56.40;;;;;;5089094;28;20181;-70
2023/12/21 03:46:55;;;;;;;6.80;4.27;;;21.10;56.50;;;;;;5089360;28;20462;-70
2023/12/21 03:49:20;;;;;;;7.83;4.87;;;21.00;56.40;;;;;;5090030;28;20170;-70
2023/12/21 03:51:46;;;;;;;6.10;4.70;;;21.10;56.50;;;;;;5089238;28;20176;-70
2023/12/21 03:54:12;;;;;;;7.13;4.30;;;21.10;56.50;;;;;;5090196;28;20169;-69
2023/12/21 03:56:39;;;;;;;6.20;4.60;;;21.10;57.00;;;;;;5090164;28;20207;-70
2023/12/21 03:59:04;;;;;;;6.80;4.90;;;21.10;56.50;;;;;;5090270;28;20168;-70
2023/12/21 04:01:30;;;;;;;6.30;4.20;;;21.10;56.50;;;;;;5090483;28;20407;-71
2023/12/21 04:03:56;;;;;;;5.83;4.50;;;21.00;56.40;;;;;;5090112;28;20192;-70
2023/12/21 04:06:22;;;;;;;7.27;4.67;;;21.10;56.50;;;;;;5089794;28;20201;-70
2023/12/21 04:08:47;;;;;;;7.20;4.87;;;21.00;56.40;;;;;;5090346;28;20170;-70
2023/12/21 04:11:13;;;;;;;7.20;4.57;;;21.10;56.40;;;;;;5090094;28;20482;-70
2023/12/21 04:13:39;;;;;;;6.60;5.10;;;21.00;56.40;;;;;;5090299;28;20173;-70
2023/12/21 04:16:08;;;;;;;8.20;4.80;;;21.00;56.40;;;;;;5090013;28;20496;-70
2023/12/21 04:18:34;;;;;;;5.20;4.10;;;21.10;56.50;;;;;;5088568;28;20189;-71
2023/12/21 04:20:59;;;;;;;7.73;5.10;;;21.10;56.50;;;;;;5090020;28;20428;-70
2023/12/21 04:23:25;;;;;;;5.40;4.10;;;21.00;56.40;;;;;;5089948;28;20178;-70
2023/12/21 04:25:50;;;;;;;7.80;4.70;;;21.00;56.40;;;;;;5089868;28;20225;-70
2023/12/21 04:28:16;;;;;;;6.20;4.70;;;21.00;56.40;;;;;;5089833;28;20189;-70
2023/12/21 04:30:42;;;;;;;5.23;3.77;;;21.00;56.40;;;;;;5089941;28;20234;-70
2023/12/21 04:33:11;;;;;;;9.63;5.17;;;21.00;56.40;;;;;;5089793;28;20173;-69
2023/12/21 04:35:37;;;;;;;5.30;4.50;;;21.00;56.40;;;;;;5089855;28;20162;-70
2023/12/21 04:38:03;;;;;;;7.47;4.57;;;21.00;56.40;;;;;;5089770;28;20422;-70
2023/12/21 04:40:28;;;;;;;5.50;4.30;;;21.00;56.40;;;;;;5088425;28;20197;-70
2023/12/21 04:42:55;;;;;;;5.07;3.80;;;21.00;56.40;;;;;;5085949;28;20413;-71
2023/12/21 04:45:23;;;;;;;6.60;4.60;;;21.00;56.40;;;;;;5069883;28;20185;-70
2023/12/21 04:47:49;;;;;;;5.63;3.73;;;21.00;56.40;;;;;;5069479;28;20460;-70
2023/12/21 04:50:15;;;;;;;6.67;3.83;;;21.00;56.40;;;;;;5069693;28;20930;-70
2023/12/21 04:52:40;;;;;;;8.77;5.17;;;21.00;56.40;;;;;;5069551;28;20261;-70
2023/12/21 04:55:07;;;;;;;5.33;3.70;;;21.00;56.40;;;;;;5069490;28;20173;-71
2023/12/21 04:57:33;;;;;;;5.90;4.30;;;21.00;56.40;;;;;;5069470;28;20285;-70
2023/12/21 04:59:58;;;;;;;5.27;4.07;;;21.00;56.40;;;;;;5073032;28;20557;-70
2023/12/21 05:02:24;;;;;;;5.03;3.90;;;21.00;56.40;;;;;;5073089;28;20183;-70
2023/12/21 05:04:49;;;;;;;7.50;3.80;;;21.00;56.40;;;;;;5073242;28;20712;-70
2023/12/21 05:07:15;;;;;;;5.80;4.40;;;21.00;56.40;;;;;;5072808;28;20571;-70
2023/12/21 05:09:40;;;;;;;7.10;4.00;;;21.00;56.40;;;;;;5072910;28;20204;-69
2023/12/21 05:12:06;;;;;;;4.80;3.73;;;21.00;56.40;;;;;;5072865;28;20247;-70
2023/12/21 05:14:32;;;;;;;6.83;3.87;;;21.00;57.00;;;;;;5071504;28;20182;-69
2023/12/21 05:16:58;;;;;;;4.27;3.43;;;21.00;56.40;;;;;;5072609;28;20217;-70
2023/12/21 05:19:23;;;;;;;5.80;4.17;;;21.00;56.40;;;;;;5072733;28;20163;-69
2023/12/21 05:21:49;;;;;;;4.80;3.90;;;21.00;56.40;;;;;;5072709;28;20545;-70
2023/12/21 05:24:15;;;;;;;4.57;3.60;;;21.00;56.40;;;;;;5072705;28;20178;-69
2023/12/21 05:26:40;;;;;;;7.93;4.27;;;21.00;56.40;;;;;;5072405;28;20914;-70
2023/12/21 05:29:06;;;;;;;5.87;4.70;;;21.00;56.40;;;;;;5072709;28;20178;-70
2023/12/21 05:31:33;;;;;;;6.23;3.00;;;21.00;56.40;;;;;;5072490;28;20645;-71
2023/12/21 05:33:59;;;;;;;4.27;3.10;;;21.00;56.40;;;;;;5072452;28;20158;-70
2023/12/21 05:36:24;;;;;;;7.17;3.63;;;21.00;56.40;;;;;;5072333;28;20782;-70
2023/12/21 05:38:51;;;;;;;5.03;3.10;;;21.00;56.40;;;;;;5072130;28;20751;-70
2023/12/21 05:41:17;;;;;;;6.17;3.27;;;21.00;56.30;;;;;;5072230;28;20413;-69
2023/12/21 05:43:43;;;;;;;3.23;2.50;;;21.00;56.10;;;;;;5072199;28;20404;-71
2023/12/21 05:46:09;;;;;;;3.47;2.27;;;21.00;56.10;;;;;;5072134;28;20448;-71
2023/12/21 05:48:35;;;;;;;3.73;2.60;;;21.00;56.00;;;;;;5072295;28;20753;-70
2023/12/21 05:51:00;;;;;;;5.40;3.50;;;21.00;56.00;;;;;;5072106;28;20447;-71
2023/12/21 05:53:30;;;;;;;5.53;3.50;;;21.00;56.10;;;;;;5072318;28;20235;-70
2023/12/21 05:55:56;;;;;;;4.37;3.40;;;21.00;56.10;;;;;;5069680;28;20439;-70
2023/12/21 05:58:22;;;;;;;4.30;2.93;;;20.90;56.10;;;;;;5072118;28;20496;-70
2023/12/21 06:00:47;;;;;;;5.23;3.30;;;21.00;56.20;;;;;;5072051;28;20904;-69
2023/12/21 06:03:13;;;;;;;5.00;3.03;;;21.00;56.30;;;;;;5072145;28;20174;-70
2023/12/21 06:05:38;;;;;;;5.20;3.30;;;20.90;56.20;;;;;;5071811;28;20174;-70
2023/12/21 06:08:04;;;;;;;5.50;3.43;;;20.90;56.20;;;;;;5071732;28;20190;-69
2023/12/21 06:10:30;;;;;;;4.50;3.00;;;21.00;56.30;;;;;;5070899;28;20679;-69
2023/12/21 06:12:55;;;;;;;7.00;2.97;;;20.90;56.30;;;;;;5071661;28;20554;-70
2023/12/21 06:15:21;;;;;;;5.97;4.00;;;21.00;56.40;;;;;;5071362;28;20257;-70
2023/12/21 06:17:47;;;;;;;4.70;3.53;;;20.90;56.30;;;;;;5071355;28;20220;-70
2023/12/21 06:20:13;;;;;;;4.67;3.13;;;21.00;56.90;;;;;;5071494;28;20846;-70
2023/12/21 06:22:38;;;;;;;3.50;2.80;;;20.90;56.30;;;;;;5070070;28;20196;-70
2023/12/21 06:25:04;;;;;;;3.43;2.50;;;21.00;56.40;;;;;;5071473;28;20224;-70
2023/12/21 06:27:30;;;;;;;4.40;3.17;;;20.90;56.30;;;;;;5071286;28;20214;-70
2023/12/21 06:29:56;;;;;;;4.63;3.13;;;21.00;56.40;;;;;;5071332;28;20408;-70
2023/12/21 06:32:22;;;;;;;5.20;3.37;;;21.00;56.50;;;;;;5071347;28;20162;-69
2023/12/21 06:34:48;;;;;;;4.70;3.20;;;21.00;56.50;;;;;;5071125;28;20220;-71
2023/12/21 06:37:13;;;;;;;4.57;3.10;;;21.00;56.50;;;;;;5071154;28;20440;-70
2023/12/21 06:39:39;;;;;;;3.93;3.17;;;21.10;56.60;;;;;;5071177;28;20641;-69
2023/12/21 06:42:05;;;;;;;4.17;3.20;;;21.00;56.50;;;;;;5071106;28;20728;-70
2023/12/21 06:44:31;;;;;;;4.00;3.30;;;21.10;56.60;;;;;;5071061;28;20182;-70
2023/12/21 06:46:57;;;;;;;5.30;2.83;;;21.10;56.60;;;;;;5070893;28;20541;-71
2023/12/21 06:49:22;;;;;;;4.30;3.03;;;21.10;56.50;;;;;;5071051;28;20181;-69
2023/12/21 06:51:48;;;;;;;4.23;3.30;;;21.10;56.50;;;;;;5071263;28;20171;-69
2023/12/21 06:54:14;;;;;;;4.17;2.83;;;21.10;56.50;;;;;;5070898;28;20265;-70
2023/12/21 06:56:39;;;;;;;4.83;3.60;;;21.10;56.50;;;;;;5070976;28;20201;-70
2023/12/21 06:59:05;;;;;;;5.40;3.00;;;21.20;56.50;;;;;;5070762;28;20940;-70
2023/12/21 07:01:31;;;;;;;4.70;3.37;;;21.20;56.50;;;;;;5070743;28;20171;-70
2023/12/21 07:03:57;;;;;;;7.67;2.70;;;21.20;56.50;;;;;;5069336;28;20239;-71
2023/12/21 07:06:25;;;;;;;4.03;3.00;;;21.20;56.50;;;;;;5070602;28;21025;-70
2023/12/21 07:08:51;;;;;;;5.60;2.80;;;21.20;56.40;;;;;;5070632;28;20447;-70
2023/12/21 07:11:17;;;;;;;5.27;3.50;;;21.20;56.50;;;;;;5070640;28;20404;-70
2023/12/21 07:13:43;;;;;;;3.90;2.70;;;21.20;56.40;;;;;;5070854;28;20413;-70
2023/12/21 07:16:10;;;;;;;5.00;3.30;;;21.20;56.40;;;;;;5070466;28;20227;-69
2023/12/21 07:18:36;;;;;;;5.27;3.30;;;21.30;56.50;;;;;;5070384;28;20429;-70
2023/12/21 07:21:03;;;;;;;3.90;3.00;;;21.20;56.30;;;;;;5070318;28;20754;-70
2023/12/21 07:23:28;;;;;;;3.70;2.90;;;21.30;56.40;;;;;;5070395;28;20220;-70
2023/12/21 07:25:54;;;;;;;4.27;3.00;;;21.30;56.40;;;;;;5070258;28;20996;-69
2023/12/21 07:28:20;;;;;;;3.50;2.60;;;21.30;56.40;;;;;;5070344;28;20954;-71
2023/12/21 07:30:45;;;;;;;4.07;2.70;;;21.30;56.40;;;;;;5070350;28;20170;-70
2023/12/21 07:33:11;;;;;;;4.47;3.57;;;21.30;56.40;;;;;;5070365;28;20474;-69
2023/12/21 07:35:38;;;;;;;3.97;3.07;;;21.30;56.40;;;;;;5070328;28;20201;-70
2023/12/21 07:38:04;;;;;;;3.50;3.00;;;21.30;56.40;;;;;;5070247;28;20190;-69
2023/12/21 07:40:30;;;;;;;5.00;2.73;;;21.30;56.40;;;;;;5070243;28;20416;-70
2023/12/21 07:42:55;;;;;;;4.00;3.00;;;21.30;56.40;;;;;;5070251;28;20415;-70
2023/12/21 07:45:21;;;;;;;3.40;2.30;;;21.30;56.40;;;;;;5070188;28;20220;-68
2023/12/21 07:47:48;;;;;;;6.60;3.70;;;21.30;56.40;;;;;;5070057;28;20209;-70
2023/12/21 07:50:13;;;;;;;3.60;2.87;;;21.30;56.40;;;;;;5070475;28;20706;-71
2023/12/21 07:52:39;;;;;;;3.83;3.50;;;21.30;56.40;;;;;;5068751;28;20408;-70
2023/12/21 07:55:06;;;;;;;4.13;2.73;;;21.30;56.40;;;;;;5070181;28;20609;-69
2023/12/21 07:57:31;;;;;;;4.50;2.77;;;21.30;56.40;;;;;;5070045;28;20610;-70
2023/12/21 07:59:57;;;;;;;4.37;2.43;;;21.30;56.40;;;;;;5070118;28;20413;-70
2023/12/21 08:02:22;;;;;;;4.20;3.20;;;21.30;56.40;;;;;;5068721;28;20178;-70
2023/12/21 08:04:48;;;;;;;4.40;3.73;;;21.30;56.40;;;;;;5069987;28;20325;-70
2023/12/21 08:07:14;;;;;;;4.27;2.80;;;21.30;56.40;;;;;;5069865;28;20633;-69
2023/12/21 08:09:39;;;;;;;5.27;3.33;;;21.30;56.40;;;;;;5070049;28;20601;-69
2023/12/21 08:12:05;;;;;;;3.10;2.47;;;21.30;56.40;;;;;;5069996;28;20174;-70
2023/12/21 08:14:35;;;;;;;4.30;3.20;;;21.30;56.40;;;;;;5068681;28;20171;-70
2023/12/21 08:17:03;;;;;;;3.73;2.70;;;21.30;56.40;;;;;;5069954;28;20696;-70
2023/12/21 08:19:28;;;;;;;3.20;2.77;;;21.30;56.40;;;;;;5068526;28;20950;-71
2023/12/21 08:21:54;;;;;;;3.77;2.83;;;21.30;56.40;;;;;;5069930;28;20436;-71
2023/12/21 08:24:19;;;;;;;3.50;2.67;;;21.30;56.40;;;;;;5069867;28;20177;-70
2023/12/21 08:26:45;;;;;;;4.07;2.27;;;21.30;56.40;;;;;;5069671;28;20752;-70
2023/12/21 08:29:11;;;;;;;3.77;2.73;;;21.30;56.40;;;;;;5069825;28;20170;-70
2023/12/21 08:31:36;;;;;;;5.87;2.70;;;21.30;56.40;;;;;;5069890;28;20170;-70
2023/12/21 08:34:04;;;;;;;3.70;2.67;;;21.30;56.40;;;;;;5072479;28;20167;-70
2023/12/21 08:36:30;;;;;;;3.43;2.60;;;21.30;56.40;;;;;;5073598;28;20317;-70
2023/12/21 08:38:55;;;;;;;4.40;3.30;;;21.30;56.40;;;;;;5073650;28;20498;-70
2023/12/21 08:41:24;;;;;;;2.93;2.20;;;21.30;56.40;;;;;;5073581;28;20175;-69
2023/12/21 08:43:50;;;;;;;4.20;2.77;;;21.30;56.40;;;;;;5073495;28;20181;-68
2023/12/21 08:46:16;;;;;;;3.67;2.57;;;21.30;56.40;;;;;;5073317;28;20456;-70
2023/12/21 08:48:41;;;;;;;3.40;2.30;;;21.30;56.40;;;;;;5073442;28;20265;-70
2023/12/21 08:51:07;;;;;;;4.53;2.83;;;21.30;56.40;;;;;;5073316;28;20664;-70
2023/12/21 08:53:32;;;;;;;3.67;2.93;;;21.30;56.40;;;;;;5073539;28;20202;-70
2023/12/21 08:55:58;;;;;;;4.83;2.50;;;21.30;56.40;;;;;;5073119;28;20697;-70
2023/12/21 08:58:24;;;;;;;3.33;2.33;;;21.30;56.40;;;;;;5073180;28;20523;-70
2023/12/21 09:00:51;;;;;;;2.87;2.27;;;21.30;56.40;;;;;;5073174;28;20405;-70
2023/12/21 09:03:17;;;;;;;2.43;2.10;;;21.30;56.40;;;;;;5073044;28;20196;-70
2023/12/21 09:05:42;;;;;;;2.70;2.10;;;21.30;56.40;;;;;;5073117;28;20405;-70
2023/12/21 09:08:08;;;;;;;3.47;2.53;;;21.30;56.40;;;;;;5072761;28;20472;-70
2023/12/21 09:10:34;;;;;;;6.30;2.80;;;21.30;56.40;;;;;;5071694;28;20174;-70
2023/12/21 09:12:59;;;;;;;4.00;3.07;;;21.30;56.40;;;;;;5072968;28;20181;-70
2023/12/21 09:15:28;;;;;;;4.80;2.70;;;21.30;56.40;;;;;;5072827;28;20173;-70
2023/12/21 09:17:54;;;;;;;4.10;2.90;;;21.30;56.40;;;;;;5072654;28;20456;-69
2023/12/21 09:20:19;;;;;;;3.23;2.60;;;21.30;56.40;;;;;;5072802;28;20417;-71
2023/12/21 09:22:47;;;;;;;3.70;2.40;;;21.30;56.30;;;;;;5072985;28;20189;-70
2023/12/21 09:25:13;;;;;;;3.90;2.33;;;21.30;56.40;;;;;;5072987;28;20236;-70
2023/12/21 09:27:38;;;;;;;4.60;2.70;;;21.30;56.40;;;;;;5071092;28;20472;-70
2023/12/21 09:30:05;;;;;;;4.40;2.83;;;21.30;56.40;;;;;;5071211;28;20637;-69
2023/12/21 09:32:31;;;;;;;4.10;2.70;;;21.30;56.40;;;;;;5072669;28;20158;-70
2023/12/21 09:34:57;;;;;;;3.67;2.40;;;21.30;56.40;;;;;;5072550;28;20708;-70
2023/12/21 09:37:23;;;;;;;2.87;2.20;;;21.30;56.40;;;;;;5072470;28;20443;-70
2023/12/21 09:39:49;;;;;;;3.60;2.17;;;21.30;56.40;;;;;;5072432;28;20170;-69
2023/12/21 09:42:15;;;;;;;3.60;3.07;;;21.30;56.40;;;;;;5072388;28;20171;-70
2023/12/21 09:44:44;;;;;;;2.87;2.50;;;21.30;56.40;;;;;;5071076;28;20432;-70
2023/12/21 09:47:13;;;;;;;3.73;2.33;;;21.30;56.40;;;;;;5072161;28;21051;-70
2023/12/21 09:49:40;;;;;;;3.57;1.93;;;21.30;56.40;;;;;;5072308;28;20412;-70
2023/12/21 09:52:08;;;;;;;4.07;2.40;;;21.30;56.40;;;;;;5072237;28;20412;-70
2023/12/21 09:54:40;;;;;;;3.77;2.70;;;21.30;56.40;;;;;;5072179;28;20474;-69
2023/12/21 09:57:06;;;;;;;3.93;2.47;;;21.30;56.40;;;;;;5072148;28;20515;-70
2023/12/21 09:59:35;;;;;;;3.23;2.43;;;21.30;56.40;;;;;;5072096;28;20873;-70
2023/12/21 10:02:01;;;;;;;2.67;2.10;;;21.30;56.40;;;;;;5072062;28;20404;-69
2023/12/21 10:04:27;;;;;;;3.33;2.10;;;21.20;56.30;;;;;;5071991;28;20408;-71
2023/12/21 10:06:52;;;;;;;3.33;3.00;;;21.30;56.40;;;;;;5072058;28;20889;-70
2023/12/21 10:09:19;;;;;;;3.00;2.20;;;21.20;56.90;;;;;;5071890;28;20253;-68
2023/12/21 10:11:44;;;;;;;2.63;2.13;;;21.20;56.30;;;;;;5071922;28;20170;-70
2023/12/21 10:14:19;;;;;;;4.27;2.43;;;21.20;56.30;;;;;;5071765;28;20942;-69
2023/12/21 10:16:45;;;;;;;4.63;1.87;;;21.30;56.40;;;;;;5071476;28;20197;-70
2023/12/21 10:19:12;;;;;;;3.87;2.07;;;21.30;56.40;;;;;;5071780;28;20480;-69
2023/12/21 10:21:40;;;;;;;3.00;2.20;;;21.20;56.30;;;;;;5071672;28;20486;-70
2023/12/21 10:24:06;;;;;;;2.83;2.00;;;21.20;56.30;;;;;;5071903;28;20438;-69
2023/12/21 10:26:32;;;;;;;3.73;2.40;;;21.20;56.40;;;;;;5071677;28;20805;-69
2023/12/21 10:28:58;;;;;;;4.20;2.30;;;21.20;56.30;;;;;;5070072;28;20469;-69
2023/12/21 10:31:25;;;;;;;3.70;2.13;;;21.30;56.40;;;;;;5071462;28;20177;-69
2023/12/21 10:33:52;;;;;;;2.93;2.63;;;21.20;56.40;;;;;;5070028;28;20431;-70
2023/12/21 10:36:18;;;;;;;3.20;2.07;;;21.20;56.30;;;;;;5071271;28;20432;-69
2023/12/21 10:38:44;;;;;;;3.07;2.30;;;21.20;56.30;;;;;;5071300;28;20405;-70
2023/12/21 10:41:10;;;;;;;3.20;2.20;;;21.20;56.30;;;;;;5071478;28;20417;-69
2023/12/21 10:43:36;;;;;;;3.43;2.53;;;21.20;56.30;;;;;;5071213;28;20416;-68
2023/12/21 10:46:03;;;;;;;3.67;2.07;;;21.30;56.40;;;;;;5071392;28;20984;-69
2023/12/21 10:48:34;;;;;;;2.43;1.83;;;21.20;56.30;;;;;;5071095;28;20170;-70
2023/12/21 10:51:01;;;;;;;2.23;1.77;;;21.20;56.30;;;;;;5071265;28;20420;-69
2023/12/21 10:53:29;;;;;;;3.90;2.13;;;21.20;56.30;;;;;;5071228;28;20474;-69
2023/12/21 10:55:56;;;;;;;2.73;2.10;;;21.20;56.30;;;;;;5070547;28;20789;-69
2023/12/21 10:58:23;;;;;;;2.30;2.10;;;21.20;56.40;;;;;;5070924;28;20405;-68
2023/12/21 11:00:50;;;;;;;2.63;1.90;;;21.20;56.40;;;;;;5070853;28;20397;-69
2023/12/21 11:03:19;;;;;;;4.37;2.40;;;21.20;56.30;;;;;;5070734;28;20921;-70
2023/12/21 11:05:45;;;;;;;4.13;2.20;;;21.20;56.30;;;;;;5070762;28;20419;-69
2023/12/21 11:08:11;;;;;;;2.87;1.93;;;21.20;56.30;;;;;;5070560;28;21024;-70
2023/12/21 11:10:37;;;;;;;2.57;1.83;;;21.20;56.50;;;;;;5070570;28;20441;-69
2023/12/21 11:13:04;;;;;;;2.53;1.70;;;21.20;56.30;;;;;;5070587;28;20489;-70
2023/12/21 11:15:30;;;;;;;2.57;1.80;;;21.20;56.30;;;;;;5069232;28;20440;-69
2023/12/21 11:18:16;;;;;;;2.47;2.23;;;21.20;56.30;;;;;;5070418;28;20487;-70
2023/12/21 11:20:48;;;;;;;3.60;2.20;;;21.20;56.30;;;;;;5070759;28;20483;-68
2023/12/21 11:23:14;;;;;;;2.90;2.20;;;21.20;56.30;;;;;;5071028;28;20388;-69
2023/12/21 11:25:40;;;;;;;3.30;1.87;;;21.20;56.40;;;;;;5070599;28;20487;-69
2023/12/21 11:28:08;;;;;;;3.70;2.00;;;21.20;56.30;;;;;;5070325;28;20221;-69
2023/12/21 11:30:33;;;;;;;2.70;1.83;;;21.20;56.30;;;;;;5070366;28;20415;-69
2023/12/21 11:33:07;;;;;;;3.33;2.13;;;21.20;56.40;;;;;;5070497;28;20413;-69
2023/12/21 11:35:33;;;;;;;2.67;2.00;;;21.20;56.40;;;;;;5070455;28;20174;-69
2023/12/21 11:38:00;;;;;;;2.67;2.03;;;21.10;56.30;;;;;;5068862;28;20950;-70
2023/12/21 11:40:26;;;;;;;2.97;2.10;;;21.20;56.40;;;;;;5070210;28;20257;-69
2023/12/21 11:42:56;;;;;;;4.20;2.20;;;21.10;56.30;;;;;;5070256;28;20550;-69
2023/12/21 11:45:23;;;;;;;2.80;1.97;;;21.20;56.40;;;;;;5070348;28;20922;-70
2023/12/21 11:47:50;;;;;;;3.13;2.10;;;21.20;56.40;;;;;;5070297;28;20460;-70
2023/12/21 11:50:19;;;;;;;2.83;1.70;;;21.10;56.30;;;;;;5070456;28;20539;-69
2023/12/21 11:52:44;;;;;;;2.83;1.90;;;21.20;56.40;;;;;;5070201;28;20413;-69
2023/12/21 11:55:10;;;;;;;2.63;1.90;;;21.20;56.40;;;;;;5070105;28;20412;-69
2023/12/21 11:57:41;;;;;;;2.60;1.40;;;21.20;56.40;;;;;;5070047;28;20982;-69
2023/12/21 12:00:30;;;;;;;3.20;2.10;;;21.10;56.30;;;;;;5070089;28;20538;-69
2023/12/21 12:02:57;;;;;;;2.60;1.80;;;21.20;56.30;;;;;;5070420;28;20777;-70
2023/12/21 12:05:22;;;;;;;2.90;2.10;;;21.10;56.30;;;;;;5070049;28;20411;-70
2023/12/21 12:07:51;;;;;;;3.40;1.90;;;21.10;56.30;;;;;;5070401;28;20468;-69
2023/12/21 12:10:18;;;;;;;2.57;1.60;;;21.10;56.30;;;;;;5072835;28;20174;-69
2023/12/21 12:12:44;;;;;;;2.60;1.63;;;21.10;56.30;;;;;;5072745;28;20938;-71
2023/12/21 12:15:10;;;;;;;2.87;2.20;;;21.20;56.40;;;;;;5074031;28;20404;-70
2023/12/21 12:17:42;;;;;;;2.50;1.77;;;21.20;56.40;;;;;;5073833;28;20464;-69
2023/12/21 12:20:09;;;;;;;2.50;1.60;;;21.10;56.30;;;;;;5073997;28;20277;-70
2023/12/21 12:22:35;;;;;;;2.97;2.37;;;21.10;56.20;;;;;;5074142;28;20902;-69
2023/12/21 12:25:02;;;;;;;3.07;1.90;;;21.20;56.40;;;;;;5073919;28;20507;-70
2023/12/21 12:27:28;;;;;;;3.13;2.23;;;21.20;56.40;;;;;;5073738;28;20885;-70
2023/12/21 12:29:55;;;;;;;4.73;3.03;;;21.10;56.30;;;;;;5072545;28;20412;-70
2023/12/21 12:32:21;;;;;;;6.30;3.63;;;21.10;56.20;;;;;;5073728;28;20408;-69
2023/12/21 12:34:47;;;;;;;7.60;4.17;;;21.10;56.20;;;;;;5072223;28;20919;-70
2023/12/21 12:37:15;;;;;;;8.93;5.10;;;21.10;56.20;;;;;;5073567;28;20428;-69
2023/12/21 12:39:41;;;;;;;12.17;5.40;;;21.10;56.30;;;;;;5073936;28;20175;-68